Time;durP1;ratioP1;P1;durP2;ratioP2;P2;SDS_P1;SDS_P2;PMS_P1;PMS_P2;Temp;Humidity;BMP_temperature;BMP_pressure;BME280_temperature;BME280_humidity;BME280_pressure;Samples;Min_cycle;Max_cycle;Signal;HPM_P1;HPM_P2
2022/04/22 00:02:24;;;;;;;13.27;5.07;;;9.20;99.90;;;;;;10258773;28;20039;-60
2022/04/22 00:07:28;;;;;;;13.70;5.90;;;9.20;99.90;;;;;;10258806;28;20061;-59
2022/04/22 00:12:29;;;;;;;17.50;5.65;;;9.10;99.90;;;;;;10256573;28;20051;-59
2022/04/22 00:17:31;;;;;;;10.68;5.32;;;9.10;99.90;;;;;;10253618;28;20058;-58
2022/04/22 00:22:36;;;;;;;14.95;6.28;;;9.00;99.90;;;;;;10254867;28;20079;-59
2022/04/22 00:27:39;;;;;;;15.95;6.55;;;8.90;99.90;;;;;;10256204;28;20058;-58
2022/04/22 00:32:40;;;;;;;13.30;6.60;;;8.80;99.90;;;;;;10262060;28;20054;-59
2022/04/22 00:37:43;;;;;;;16.50;6.40;;;8.80;99.90;;;;;;10263602;28;20556;-59
2022/04/22 00:42:44;;;;;;;15.57;5.88;;;8.80;99.90;;;;;;10262716;28;20057;-59
2022/04/22 00:47:47;;;;;;;21.00;7.10;;;8.70;99.90;;;;;;10265887;28;20046;-59
2022/04/22 00:52:49;;;;;;;15.73;7.63;;;8.70;99.90;;;;;;10263775;28;20114;-59
2022/04/22 00:57:50;;;;;;;18.67;7.05;;;8.70;99.90;;;;;;10254698;28;20149;-57
2022/04/22 01:02:53;;;;;;;17.90;7.22;;;8.70;99.90;;;;;;10261822;28;20043;-57
2022/04/22 01:13:16;;;;;;;13.60;6.57;;;8.70;99.90;;;;;;10263642;28;20057;-58
2022/04/22 01:18:21;;;;;;;21.02;7.78;;;8.60;99.90;;;;;;10261977;28;20433;-58
2022/04/22 01:23:22;;;;;;;22.13;7.38;;;8.60;99.90;;;;;;10260406;28;20039;-58
2022/04/22 01:28:24;;;;;;;20.95;7.78;;;8.60;99.90;;;;;;10260221;28;20110;-58
2022/04/22 01:33:26;;;;;;;18.00;7.00;;;8.60;99.90;;;;;;10262087;28;20059;-58
2022/04/22 01:38:27;;;;;;;16.75;6.55;;;8.50;99.90;;;;;;10262583;28;20047;-57
2022/04/22 01:43:29;;;;;;;17.92;7.60;;;8.50;99.90;;;;;;10261855;28;20075;-58
2022/04/22 01:48:31;;;;;;;17.65;6.80;;;8.50;99.90;;;;;;10257072;28;20142;-58
2022/04/22 01:53:32;;;;;;;20.67;8.13;;;8.50;99.90;;;;;;10264811;28;20066;-58
2022/04/22 01:58:37;;;;;;;16.23;7.43;;;8.50;99.90;;;;;;10263138;28;20234;-59
2022/04/22 02:03:38;;;;;;;16.85;7.32;;;8.40;99.90;;;;;;10253843;28;20066;-58
2022/04/22 02:08:40;;;;;;;16.55;7.50;;;8.40;99.90;;;;;;10260505;28;20478;-59
2022/04/22 02:13:42;;;;;;;18.67;6.88;;;8.30;99.90;;;;;;10259076;28;20489;-59
2022/04/22 02:18:43;;;;;;;17.05;7.50;;;8.30;99.90;;;;;;10247065;28;20380;-59
2022/04/22 02:23:45;;;;;;;15.70;7.57;;;8.30;99.90;;;;;;10254049;28;20455;-59
2022/04/22 02:28:47;;;;;;;20.35;7.00;;;8.20;99.90;;;;;;10259528;28;20117;-59
2022/04/22 02:33:48;;;;;;;18.92;7.40;;;8.20;99.90;;;;;;10242524;28;20050;-59
2022/04/22 02:38:50;;;;;;;20.17;7.03;;;8.20;99.90;;;;;;10261757;28;20046;-59
2022/04/22 02:49:12;;;;;;;15.68;7.25;;;8.20;99.90;;;;;;10260058;28;20046;-59
2022/04/22 02:54:13;;;;;;;19.75;7.13;;;8.20;99.90;;;;;;10257962;28;20054;-59
2022/04/22 02:59:15;;;;;;;16.85;7.22;;;8.20;99.90;;;;;;10252005;28;20038;-58
2022/04/22 03:04:18;;;;;;;20.08;7.10;;;8.10;99.90;;;;;;10238684;28;20450;-58
2022/04/22 03:09:20;;;;;;;14.80;6.75;;;8.10;99.90;;;;;;10245168;28;20046;-59
2022/04/22 03:14:21;;;;;;;16.65;6.93;;;8.10;99.90;;;;;;10243213;28;20439;-59
2022/04/22 03:19:23;;;;;;;20.27;7.15;;;8.10;99.90;;;;;;10255622;28;20055;-60
2022/04/22 03:24:25;;;;;;;20.08;7.38;;;8.00;99.90;;;;;;10246098;28;20054;-60
2022/04/22 03:29:26;;;;;;;21.55;7.65;;;8.00;99.90;;;;;;10257805;28;20047;-60
2022/04/22 03:34:28;;;;;;;20.73;6.55;;;7.90;99.90;;;;;;10258223;28;20047;-59
2022/04/22 03:39:30;;;;;;;16.90;6.43;;;7.90;99.90;;;;;;10262342;28;20099;-60
2022/04/22 03:44:31;;;;;;;20.95;8.10;;;7.90;99.90;;;;;;10251384;28;20050;-60
2022/04/22 03:49:34;;;;;;;20.23;7.55;;;7.90;99.90;;;;;;10253815;28;20050;-60
2022/04/22 03:54:35;;;;;;;22.08;8.45;;;7.90;99.90;;;;;;10256897;28;20497;-60
2022/04/22 03:59:38;;;;;;;17.60;7.13;;;7.90;99.90;;;;;;10256076;28;20054;-60
2022/04/22 04:04:39;;;;;;;21.35;7.85;;;7.90;99.90;;;;;;10257293;28;20434;-59
2022/04/22 04:25:44;;;;;;;18.85;7.65;;;8.00;99.90;;;;;;10263673;28;20449;-60
2022/04/22 04:30:46;;;;;;;18.45;8.20;;;8.00;99.90;;;;;;10260572;28;20051;-60
2022/04/22 04:35:48;;;;;;;12.85;6.32;;;8.00;99.90;;;;;;10265389;28;20049;-59
2022/04/22 04:40:50;;;;;;;17.83;6.93;;;8.00;99.90;;;;;;10237107;28;20648;-59
2022/04/22 04:45:52;;;;;;;19.13;7.93;;;8.00;99.90;;;;;;10263094;28;20110;-60
2022/04/22 04:50:55;;;;;;;22.02;7.25;;;8.10;99.90;;;;;;10262630;28;20057;-59
2022/04/22 04:55:57;;;;;;;17.58;6.72;;;8.10;99.90;;;;;;10258067;28;20047;-60
2022/04/22 05:00:58;;;;;;;17.25;6.63;;;8.20;99.90;;;;;;10258869;28;20061;-59
2022/04/22 05:06:01;;;;;;;16.45;7.07;;;8.30;99.90;;;;;;10256125;28;20054;-59
2022/04/22 05:11:03;;;;;;;19.23;6.55;;;8.30;99.90;;;;;;10264342;28;20055;-59
2022/04/22 05:16:05;;;;;;;17.65;6.20;;;8.40;99.90;;;;;;10261493;28;20063;-59
2022/04/22 05:21:06;;;;;;;14.50;7.03;;;8.50;99.90;;;;;;10262336;28;20062;-59
2022/04/22 05:26:08;;;;;;;12.63;6.68;;;8.50;99.90;;;;;;10261721;28;20109;-59
2022/04/22 05:36:30;;;;;;;16.02;6.85;;;8.80;99.90;;;;;;10256935;28;20417;-59
2022/04/22 05:41:32;;;;;;;15.23;5.85;;;8.90;99.90;;;;;;10258638;28;20051;-59
2022/04/22 05:46:33;;;;;;;13.90;6.38;;;8.90;99.90;;;;;;10259442;28;20066;-58
2022/04/22 05:51:35;;;;;;;13.00;5.78;;;9.00;99.90;;;;;;10257505;28;20063;-59
2022/04/22 05:56:37;;;;;;;13.55;5.43;;;9.10;99.90;;;;;;10261680;28;20102;-60
2022/04/22 06:01:39;;;;;;;12.27;5.43;;;9.20;99.90;;;;;;10259801;28;20465;-60
2022/04/22 06:06:41;;;;;;;13.63;6.15;;;9.40;99.90;;;;;;10262031;28;20129;-59
2022/04/22 06:11:48;;;;;;;13.18;5.65;;;9.60;99.90;;;;;;10259084;28;20134;-59
2022/04/22 06:16:50;;;;;;;14.15;6.55;;;9.70;99.90;;;;;;10260343;28;20051;-60
2022/04/22 06:21:51;;;;;;;11.82;6.15;;;9.80;99.90;;;;;;10242446;28;20047;-59
2022/04/22 06:26:53;;;;;;;12.45;6.03;;;9.90;99.90;;;;;;10262820;28;20078;-60
2022/04/22 06:31:55;;;;;;;13.13;5.32;;;10.00;99.90;;;;;;10258573;28;20078;-59
2022/04/22 06:36:57;;;;;;;10.27;4.82;;;10.10;99.90;;;;;;10261391;28;20063;-59
2022/04/22 06:47:22;;;;;;;9.25;4.53;;;10.30;99.90;;;;;;10254717;28;20046;-59
2022/04/22 06:52:25;;;;;;;10.95;5.32;;;10.40;99.90;;;;;;10255523;28;20050;-59
2022/04/22 06:57:29;;;;;;;8.43;4.32;;;10.50;99.90;;;;;;10261357;28;20042;-59
2022/04/22 07:02:30;;;;;;;9.63;5.05;;;10.60;99.90;;;;;;10256172;28;20098;-59
2022/04/22 07:07:38;;;;;;;;;;;10.70;99.90;;;;;;10256042;28;20050;-59
2022/04/22 07:12:39;;;;;;;7.53;4.00;;;10.90;99.90;;;;;;10260705;28;20369;-59
2022/04/22 07:17:42;;;;;;;9.55;3.92;;;11.00;99.90;;;;;;10252880;28;20062;-59
2022/04/22 07:22:44;;;;;;;6.90;3.60;;;11.10;99.90;;;;;;10242773;28;20051;-59
2022/04/22 07:27:46;;;;;;;6.75;3.40;;;11.30;99.10;;;;;;10257103;28;20111;-59
2022/04/22 07:32:49;;;;;;;7.05;3.17;;;11.60;97.00;;;;;;10254754;28;20047;-59
2022/04/22 07:37:52;;;;;;;7.15;3.33;;;11.70;93.50;;;;;;10253228;28;20070;-59
2022/04/22 07:48:15;;;;;;;6.78;3.50;;;12.00;90.50;;;;;;10265141;28;20043;-60
2022/04/22 07:53:17;;;;;;;6.50;2.85;;;12.20;89.40;;;;;;10269370;28;20038;-60
2022/04/22 07:58:19;;;;;;;10.32;3.28;;;12.40;88.40;;;;;;10266555;28;20047;-60
2022/04/22 08:03:21;;;;;;;6.18;3.40;;;12.60;85.20;;;;;;10263668;28;20066;-60
2022/04/22 08:08:24;;;;;;;6.00;3.25;;;12.70;82.10;;;;;;10263124;28;20106;-60
2022/04/22 08:13:26;;;;;;;6.57;3.50;;;12.90;82.00;;;;;;10243969;28;20066;-60
2022/04/22 08:18:27;;;;;;;4.70;2.72;;;13.00;80.70;;;;;;10259333;28;20047;-59
2022/04/22 08:23:29;;;;;;;6.47;3.17;;;13.20;79.80;;;;;;10258283;28;20110;-60
2022/04/22 08:28:31;;;;;;;6.30;2.88;;;13.40;77.30;;;;;;10261063;28;20043;-60
2022/04/22 08:33:32;;;;;;;6.03;2.72;;;13.50;76.40;;;;;;10260591;28;20105;-59
2022/04/22 08:38:34;;;;;;;7.82;3.67;;;13.60;75.00;;;;;;10260893;28;20113;-58
2022/04/22 08:43:38;;;;;;;7.80;3.50;;;13.70;75.10;;;;;;10261501;28;20054;-58
2022/04/22 08:54:00;;;;;;;6.63;3.40;;;14.10;72.80;;;;;;10261218;28;20046;-59
2022/04/22 08:59:02;;;;;;;5.30;2.88;;;14.30;72.70;;;;;;10245396;28;20417;-59
2022/04/22 09:04:04;;;;;;;5.95;3.05;;;14.40;70.80;;;;;;10258903;28;20047;-58
2022/04/22 09:09:06;;;;;;;6.65;2.92;;;14.60;71.00;;;;;;10259708;28;20067;-58
2022/04/22 09:14:08;;;;;;;6.05;2.83;;;14.80;69.30;;;;;;10257969;28;20039;-60
2022/04/22 09:19:10;;;;;;;6.00;3.40;;;14.90;68.60;;;;;;10254858;28;20489;-59
2022/04/22 09:24:13;;;;;;;8.10;2.90;;;15.10;68.40;;;;;;10261586;28;20056;-60
2022/04/22 09:29:15;;;;;;;10.57;3.50;;;15.20;66.50;;;;;;10233644;28;20051;-59
2022/04/22 09:34:33;;;;;;;5.03;2.92;;;15.40;67.00;;;;;;10261883;28;20043;-59
2022/04/22 09:44:56;;;;;;;4.32;2.80;;;15.70;65.80;;;;;;10259306;28;20046;-59
2022/04/22 09:50:00;;;;;;;7.78;3.05;;;15.90;65.30;;;;;;10258607;28;20046;-59
2022/04/22 09:55:09;;;;;;;5.38;2.92;;;16.00;64.00;;;;;;10241648;28;20046;-59
2022/04/22 10:00:11;;;;;;;4.43;2.70;;;16.10;63.10;;;;;;10260181;28;20051;-59
2022/04/22 10:05:13;;;;;;;5.03;2.70;;;16.20;63.10;;;;;;10230777;28;20447;-59
2022/04/22 10:10:17;;;;;;;5.10;2.65;;;16.30;63.10;;;;;;10260555;28;20051;-58
2022/04/22 10:15:20;;;;;;;3.88;2.67;;;16.60;63.40;;;;;;10258893;28;20403;-59
2022/04/22 10:20:26;;;;;;;4.30;2.05;;;16.70;61.40;;;;;;10254214;28;20498;-58
2022/04/22 10:25:32;;;;;;;3.97;2.37;;;16.90;61.70;;;;;;10256759;28;20046;-58
2022/04/22 10:30:35;;;;;;;4.47;2.25;;;17.40;58.90;;;;;;10261479;28;20291;-58
2022/04/22 10:35:42;;;;;;;6.68;2.42;;;17.90;57.20;;;;;;10258855;28;20050;-58
2022/04/22 10:40:48;;;;;;;8.43;2.75;;;18.00;57.60;;;;;;10252086;28;20801;-58
2022/04/22 10:51:10;;;;;;;5.40;2.72;;;18.60;56.40;;;;;;10259744;28;20128;-59
2022/04/22 10:56:33;;;;;;;5.22;2.90;;;18.60;55.60;;;;;;10228318;28;20047;-58
2022/04/22 11:01:39;;;;;;;4.40;2.63;;;19.00;55.70;;;;;;10255807;28;20042;-59
2022/04/22 11:06:41;;;;;;;4.67;2.57;;;19.30;55.00;;;;;;10261397;28;20114;-58
2022/04/22 11:11:43;;;;;;;5.28;2.88;;;19.10;53.70;;;;;;10252040;28;20047;-59
2022/04/22 11:16:45;;;;;;;5.93;2.95;;;19.10;54.90;;;;;;10260160;28;20603;-60
2022/04/22 11:21:55;;;;;;;6.75;2.25;;;19.70;55.80;;;;;;10251555;28;20101;-58
2022/04/22 11:27:28;;;;;;;5.00;2.33;;;19.90;54.00;;;;;;10251020;28;20498;-58
2022/04/22 11:32:33;;;;;;;3.47;2.03;;;19.70;53.40;;;;;;10256966;28;20035;-61
2022/04/22 11:37:37;;;;;;;2.90;1.60;;;20.20;52.80;;;;;;10259773;28;20078;-60
2022/04/22 11:42:43;;;;;;;3.50;2.25;;;20.60;52.20;;;;;;10255428;28;20102;-59
2022/04/22 11:47:45;;;;;;;3.80;2.33;;;20.40;51.40;;;;;;10244759;28;20050;-60
2022/04/22 11:52:52;;;;;;;4.25;2.15;;;20.70;50.60;;;;;;10254309;28;20454;-59
2022/04/22 11:57:53;;;;;;;4.97;2.65;;;20.90;51.50;;;;;;10227078;28;20109;-60
2022/04/22 12:08:17;;;;;;;3.67;2.28;;;20.60;50.50;;;;;;10259349;28;20042;-60
2022/04/22 12:13:18;;;;;;;5.45;2.53;;;20.60;50.90;;;;;;10259095;28;20054;-60
2022/04/22 12:18:29;;;;;;;5.43;3.03;;;20.50;51.60;;;;;;10252003;28;20063;-60
2022/04/22 12:23:39;;;;;;;5.68;3.05;;;20.30;51.70;;;;;;10255680;28;20062;-60
2022/04/22 12:29:14;;;;;;;4.28;2.70;;;20.30;51.60;;;;;;10261991;28;20377;-59
2022/04/22 12:34:36;;;;;;;6.82;2.50;;;19.80;51.40;;;;;;10262961;28;20127;-60
2022/04/22 12:39:43;;;;;;;6.82;2.92;;;20.20;52.60;;;;;;10262153;28;20042;-60
2022/04/22 12:56:00;;;;;;;2.30;1.60;;;21.10;50.00;;;;;;10252328;28;20042;-59
2022/04/22 13:01:06;;;;;;;3.72;1.77;;;21.30;48.40;;;;;;10261747;28;20121;-60
2022/04/22 13:06:08;;;;;;;3.93;1.90;;;21.80;48.40;;;;;;10261406;28;20081;-60
2022/04/22 13:11:09;;;;;;;4.55;2.00;;;21.40;47.70;;;;;;10265236;28;20051;-59
2022/04/22 13:16:14;;;;;;;6.80;3.28;;;21.60;49.40;;;;;;10259998;28;20114;-59
2022/04/22 13:21:16;;;;;;;6.38;2.70;;;21.30;49.20;;;;;;10249712;28;20133;-60
2022/04/22 13:26:19;;;;;;;2.92;2.20;;;21.10;50.10;;;;;;10248271;28;20058;-59
2022/04/22 13:31:22;;;;;;;3.30;2.13;;;21.30;48.70;;;;;;10262411;28;20125;-59
2022/04/22 13:36:24;;;;;;;6.25;2.40;;;21.50;50.20;;;;;;10256945;28;20049;-59
2022/04/22 13:41:26;;;;;;;5.20;1.92;;;21.70;48.80;;;;;;10258841;28;20055;-59
2022/04/22 13:57:09;;;;;;;3.72;1.80;;;21.30;47.00;;;;;;10260675;28;20047;-59
2022/04/22 14:02:11;;;;;;;3.53;1.33;;;20.90;47.80;;;;;;10248832;28;20125;-59
2022/04/22 14:07:13;;;;;;;2.13;1.17;;;21.00;48.30;;;;;;10263257;28;20054;-59
2022/04/22 14:12:15;;;;;;;4.13;1.55;;;21.60;47.50;;;;;;10262916;28;20633;-61
2022/04/22 14:17:17;;;;;;;9.63;1.75;;;21.70;47.60;;;;;;10253359;28;20051;-61
2022/04/22 14:22:19;;;;;;;2.97;1.55;;;21.80;48.30;;;;;;10253270;28;20815;-59
2022/04/22 14:27:21;;;;;;;3.58;1.42;;;21.70;46.20;;;;;;10262947;28;20043;-58
2022/04/22 14:32:22;;;;;;;3.08;1.70;;;21.90;47.50;;;;;;10246999;28;20070;-59
2022/04/22 14:37:24;;;;;;;6.50;1.60;;;;;;;;;;10252932;28;20061;-60
2022/04/22 14:42:27;;;;;;;2.35;1.33;;;;;;;;;;10260011;28;20127;-59
2022/04/22 14:47:28;;;;;;;3.30;1.77;;;23.20;61.80;;;;;;10259139;28;20101;-59
2022/04/22 14:52:30;;;;;;;5.68;1.80;;;23.20;59.90;;;;;;10260874;28;20066;-59
2022/04/22 14:57:32;;;;;;;3.53;2.13;;;22.70;61.50;;;;;;10245815;28;20050;-59
2022/04/22 15:02:34;;;;;;;2.63;1.83;;;22.40;60.30;;;;;;10261022;28;20094;-58
2022/04/22 15:07:36;;;;;;;2.45;1.90;;;22.20;62.40;;;;;;10259155;28;20047;-59
2022/04/22 15:12:38;;;;;;;2.75;2.38;;;22.00;61.20;;;;;;10262022;28;20059;-60
2022/04/22 15:28:23;;;;;;;4.30;2.10;;;21.40;60.80;;;;;;10249247;28;20044;-59
2022/04/22 15:33:46;;;;;;;3.90;2.83;;;21.20;62.40;;;;;;10238696;28;20055;-60
2022/04/22 15:38:49;;;;;;;4.20;3.00;;;20.80;63.90;;;;;;10256727;28;20055;-59
2022/04/22 15:43:51;;;;;;;6.78;2.60;;;20.40;65.20;;;;;;10252578;28;20043;-60
2022/04/22 15:48:54;;;;;;;3.28;2.53;;;20.30;63.10;;;;;;10242734;28;20414;-60
2022/04/22 15:53:56;;;;;;;6.80;2.33;;;20.00;65.80;;;;;;10240015;28;20446;-60
2022/04/22 15:58:58;;;;;;;3.47;2.22;;;19.60;66.40;;;;;;10259189;28;20082;-60
2022/04/22 16:03:59;;;;;;;4.70;2.20;;;19.40;66.40;;;;;;10262395;28;20169;-60
2022/04/22 16:09:01;;;;;;;5.00;3.15;;;19.30;66.50;;;;;;10263787;28;20051;-59
2022/04/22 16:19:24;;;;;;;4.85;2.28;;;19.30;64.20;;;;;;10264087;28;20054;-60
2022/04/22 16:24:26;;;;;;;8.50;2.63;;;19.10;65.10;;;;;;10265031;28;20050;-60
2022/04/22 16:29:28;;;;;;;4.88;2.42;;;19.00;66.00;;;;;;10264359;28;20057;-60
2022/04/22 16:34:30;;;;;;;4.35;2.42;;;18.80;69.00;;;;;;10262386;28;20126;-60
2022/04/22 16:39:32;;;;;;;4.50;2.20;;;18.70;68.90;;;;;;10260454;28;20176;-60
2022/04/22 16:44:36;;;;;;;4.88;2.95;;;18.60;69.70;;;;;;10264008;28;20050;-60
2022/04/22 16:49:39;;;;;;;5.25;3.47;;;18.40;70.30;;;;;;10241945;28;20070;-60
2022/04/22 16:54:40;;;;;;;8.88;3.83;;;18.30;70.80;;;;;;10265729;28;20050;-60
2022/04/22 16:59:42;;;;;;;6.20;3.58;;;18.00;71.40;;;;;;10265130;28;20047;-60
2022/04/22 17:04:44;;;;;;;5.03;3.53;;;17.90;71.90;;;;;;10262161;28;20051;-60
2022/04/22 17:09:46;;;;;;;6.00;3.58;;;17.80;72.50;;;;;;10253930;28;20054;-60
2022/04/22 17:25:29;;;;;;;7.18;4.95;;;17.40;74.60;;;;;;10246259;28;20063;-60
2022/04/22 17:30:31;;;;;;;11.55;5.65;;;17.30;74.80;;;;;;10262219;28;20042;-60
2022/04/22 17:35:33;;;;;;;14.45;4.95;;;17.10;75.10;;;;;;10245257;28;20465;-59
2022/04/22 17:40:35;;;;;;;9.23;5.32;;;17.00;75.70;;;;;;10236459;28;20147;-58
2022/04/22 17:45:37;;;;;;;7.55;5.07;;;16.80;76.30;;;;;;10258884;28;20045;-59
2022/04/22 17:50:38;;;;;;;8.32;5.38;;;16.80;76.80;;;;;;10260162;28;20229;-59
2022/04/22 17:55:40;;;;;;;7.70;5.40;;;16.60;77.50;;;;;;10261501;28;20053;-59
2022/04/22 18:00:42;;;;;;;7.80;5.47;;;16.50;77.70;;;;;;10254631;28;20035;-59
2022/04/22 18:05:43;;;;;;;11.32;5.75;;;16.40;76.80;;;;;;10259305;28;20725;-59
2022/04/22 18:10:45;;;;;;;10.52;6.45;;;16.30;78.60;;;;;;10259436;28;20043;-59
2022/04/22 18:21:14;;;;;;;9.00;5.80;;;16.10;80.30;;;;;;10261588;28;20051;-58
2022/04/22 18:26:16;;;;;;;10.20;5.40;;;16.00;80.60;;;;;;10263058;28;20057;-60
2022/04/22 18:31:18;;;;;;;10.02;6.03;;;15.90;80.90;;;;;;10246189;28;20039;-60
2022/04/22 18:36:20;;;;;;;10.98;6.22;;;15.80;82.00;;;;;;10238899;28;20067;-60
2022/04/22 18:41:25;;;;;;;9.23;5.82;;;15.70;82.60;;;;;;10262419;28;20560;-58
2022/04/22 18:46:26;;;;;;;8.52;6.00;;;15.60;83.10;;;;;;10258442;28;20047;-58
2022/04/22 18:51:29;;;;;;;9.27;5.93;;;15.40;83.70;;;;;;10263612;28;20082;-58
2022/04/22 18:56:30;;;;;;;7.90;6.20;;;15.40;85.30;;;;;;10258371;28;20043;-59
2022/04/22 19:01:32;;;;;;;10.20;6.18;;;15.20;86.10;;;;;;10253718;28;20803;-58
2022/04/22 19:06:34;;;;;;;10.02;6.18;;;15.10;86.90;;;;;;10253463;28;20102;-58
2022/04/22 19:11:36;;;;;;;10.93;5.43;;;14.90;88.30;;;;;;10229824;28;20046;-57
2022/04/22 19:16:38;;;;;;;9.63;5.63;;;14.80;89.40;;;;;;10228331;28;20047;-58
2022/04/22 19:21:39;;;;;;;13.55;6.45;;;14.60;90.20;;;;;;10261250;28;20055;-59
2022/04/22 19:26:41;;;;;;;10.75;6.05;;;14.60;90.70;;;;;;10257933;28;20074;-58
2022/04/22 19:31:43;;;;;;;9.23;6.00;;;14.40;91.30;;;;;;10256017;28;20042;-58
2022/04/22 19:42:06;;;;;;;8.07;5.60;;;14.20;92.60;;;;;;10245442;28;20087;-58
2022/04/22 19:47:07;;;;;;;7.90;5.70;;;14.00;93.50;;;;;;10256207;28;20043;-59
2022/04/22 19:52:10;;;;;;;11.43;6.60;;;13.90;94.30;;;;;;10228234;28;20084;-58
2022/04/22 19:57:13;;;;;;;8.10;5.97;;;13.80;95.00;;;;;;10248441;28;20179;-59
2022/04/22 20:02:16;;;;;;;10.48;6.25;;;13.60;95.80;;;;;;10246204;28;20043;-58
2022/04/22 20:07:18;;;;;;;11.30;5.93;;;13.50;96.40;;;;;;10252355;28;20047;-59
2022/04/22 20:12:20;;;;;;;11.55;6.63;;;13.40;97.40;;;;;;10246657;28;20051;-59
2022/04/22 20:17:22;;;;;;;9.68;6.28;;;13.30;98.40;;;;;;10235734;28;20142;-60
2022/04/22 20:22:24;;;;;;;12.77;6.72;;;13.10;99.30;;;;;;10258197;28;20047;-60
2022/04/22 20:27:26;;;;;;;9.18;6.10;;;13.00;99.90;;;;;;10252368;28;20061;-59
2022/04/22 20:32:27;;;;;;;11.55;6.38;;;13.00;99.90;;;;;;10248632;28;20063;-60
2022/04/22 20:42:50;;;;;;;8.40;5.25;;;12.90;98.00;;;;;;10256700;28;20051;-59
2022/04/22 20:47:51;;;;;;;9.27;5.95;;;12.80;96.50;;;;;;10253067;28;20058;-59
2022/04/22 20:58:14;;;;;;;10.82;6.57;;;12.60;99.90;;;;;;10256621;28;20406;-58
2022/04/22 21:03:21;;;;;;;11.55;5.95;;;12.50;99.80;;;;;;10264292;28;20047;-58
2022/04/22 21:08:23;;;;;;;11.57;6.60;;;12.40;99.60;;;;;;10262294;28;20134;-58
2022/04/22 21:13:25;;;;;;;10.63;6.22;;;12.30;99.60;;;;;;10266585;28;20046;-59
2022/04/22 21:18:27;;;;;;;14.48;6.07;;;12.20;99.90;;;;;;10265815;28;20057;-59
2022/04/22 21:23:29;;;;;;;10.70;5.82;;;12.20;99.90;;;;;;10261742;28;20051;-58
2022/04/22 21:28:32;;;;;;;14.43;5.75;;;12.00;99.90;;;;;;10259486;28;20038;-58
2022/04/22 21:33:34;;;;;;;9.68;5.30;;;11.90;99.90;;;;;;10262575;28;20054;-58
2022/04/22 21:38:35;;;;;;;9.85;6.05;;;11.80;99.90;;;;;;10261944;28;20106;-59
2022/04/22 21:43:37;;;;;;;10.70;4.97;;;11.70;99.90;;;;;;10260248;28;20058;-59
2022/04/22 21:48:39;;;;;;;8.75;5.50;;;11.60;99.90;;;;;;10260589;28;20047;-58
2022/04/22 21:53:40;;;;;;;12.00;5.57;;;11.50;99.90;;;;;;10262044;28;20047;-58
2022/04/22 21:58:42;;;;;;;12.20;6.35;;;11.50;99.90;;;;;;10257378;28;20054;-58
2022/04/22 22:03:44;;;;;;;9.48;4.97;;;11.40;99.90;;;;;;10261866;28;20058;-58
2022/04/22 22:08:45;;;;;;;12.75;5.85;;;11.30;99.90;;;;;;10263268;28;20043;-57
2022/04/22 22:13:47;;;;;;;10.00;6.10;;;11.30;99.90;;;;;;10240673;28;20051;-57
2022/04/22 22:18:49;;;;;;;15.45;7.32;;;11.10;97.00;;;;;;10259501;28;20043;-57
2022/04/22 22:23:52;;;;;;;14.73;7.20;;;11.00;98.60;;;;;;10256365;28;20054;-56
2022/04/22 22:28:53;;;;;;;12.68;7.05;;;10.90;99.30;;;;;;10262198;28;20043;-58
2022/04/22 22:33:55;;;;;;;11.98;6.57;;;10.90;99.90;;;;;;10257419;28;20058;-58
2022/04/22 22:38:57;;;;;;;13.75;7.18;;;10.80;99.60;;;;;;10260083;28;20216;-58
2022/04/22 22:43:58;;;;;;;14.70;7.65;;;10.70;99.60;;;;;;10259821;28;20051;-58
2022/04/22 22:49:00;;;;;;;11.05;6.60;;;10.60;99.50;;;;;;10261337;28;20056;-58
2022/04/22 22:54:02;;;;;;;12.68;7.00;;;10.60;99.70;;;;;;10264678;28;20050;-58
2022/04/22 22:59:06;;;;;;;12.63;6.35;;;10.50;99.40;;;;;;10252895;28;20053;-58
2022/04/22 23:04:08;;;;;;;9.70;6.22;;;10.40;99.20;;;;;;10260476;28;20262;-58
2022/04/22 23:09:10;;;;;;;11.57;6.65;;;10.30;99.20;;;;;;10251083;28;20058;-58
2022/04/22 23:14:12;;;;;;;13.15;6.68;;;10.30;99.70;;;;;;10242282;28;20047;-58
2022/04/22 23:19:16;;;;;;;13.10;6.75;;;10.30;99.50;;;;;;10258205;28;20039;-59
2022/04/22 23:24:18;;;;;;;10.38;6.32;;;10.20;99.90;;;;;;10233666;28;20054;-59
2022/04/22 23:29:20;;;;;;;14.20;6.55;;;10.10;99.90;;;;;;10255859;28;20046;-59
2022/04/22 23:34:21;;;;;;;10.82;6.07;;;10.10;99.90;;;;;;10251022;28;20066;-59
2022/04/22 23:39:26;;;;;;;13.30;6.10;;;10.10;99.90;;;;;;10255480;28;20130;-59
2022/04/22 23:44:28;;;;;;;12.57;6.53;;;10.00;99.90;;;;;;10234667;28;20497;-60
2022/04/22 23:49:31;;;;;;;12.07;5.72;;;10.00;99.90;;;;;;10253098;28;20072;-59
2022/04/22 23:54:33;;;;;;;12.75;6.13;;;9.90;99.90;;;;;;10258950;28;20055;-59
2022/04/22 23:59:35;;;;;;;12.40;6.10;;;9.90;99.90;;;;;;10258121;28;20047;-58
